(°C)
22°
25°
26°
27°
28°
28°
30°
(°C)
20°
23°
24°
25°
25°
25°
26°
ЮЮВ
ЮЮВ
Ю
Ю
ЮЮЗ
ЮЮЗ
ЮЮЗ
(км/ч)
12-23
12-24
13-25
15-26
17-28
18-27
19-27
(мм)
0
0
0
0
0
0
0
(%)
0
0
0
0
0
0
0

Высота солнцестояния

/ 7.9°
sun-icon
UV 6
04:09
21:39
Прибывающая луна (58°)
08:36
00:46

METAR для 55.31°С 61.5°В (USCC)

Время Условия Температура/
Точка росы
Ветер Видимость Погода Облачность Давление Изменить Необработанный
MVFR 24°C / 5°C 230º 12kt 6000m - Scattered Clouds 4000ft 1017 No Significant change USCC 150000Z 23006MPS 6000 SCT040CB 24/05 Q1017 R27/000060 NOSIG RMK QFE743
MVFR 23°C / 5°C 210º 10kt 5000m Smoke Vertical Visibility of 0ft. 1017 No Significant change USCC 142330Z 21005MPS 5000 FU SCT040CB 23/05 Q1017 R27/000060 NOSIG RMK QFE743
MVFR 23°C / 5°C 190º 8kt 5000m Smoke Vertical Visibility of 0ft. 1017 No Significant change USCC 142300Z 19004MPS 5000 FU SCT040CB 23/05 Q1017 R09/000060 NOSIG RMK QFE742
MVFR 22°C / 5°C 190º 10kt 5000m Smoke Vertical Visibility of 0ft. 1017 No Significant change USCC 142230Z 19005MPS 5000 FU SCT040CB 22/05 Q1017 R09/000060 NOSIG RMK QFE742
MVFR 21°C / 6°C 190º 8kt 5000m Smoke Vertical Visibility of 0ft. 1018 No Significant change USCC 142200Z 19004MPS 5000 FU SCT040CB 21/06 Q1018 R09/000060 NOSIG RMK QFE742
IFR 20°C / 8°C 190º 6kt 4600m Smoke Vertical Visibility of 0ft. 1018 No Significant change USCC 142130Z 19003MPS 4600 FU FEW040CB 20/08 Q1018 R09/000060 NOSIG RMK QFE742
IFR 18°C / 9°C 190º 4kt 4600m Smoke Vertical Visibility of 0ft. 1018 No Significant change USCC 142100Z 19002MPS 4600 FU FEW040CB 18/09 Q1018 R09/000060 NOSIG RMK QFE743
MVFR 20°C / 8°C variable 0kt 4900m Smoke Vertical Visibility of 0ft. 1018 No Significant change USCC 142030Z 00000MPS 4900 FU FEW040CB 20/08 Q1018 R09/000060 NOSIG RMK QFE743
IFR 18°C / 9°C variable 0kt 4800m Smoke Vertical Visibility of 0ft. 1018 No Significant change USCC 142000Z 00000MPS 4800 FU FEW040CB 18/09 Q1018 R09/000060 NOSIG RMK QFE743
IFR 19°C / 10°C variable 0kt 4700m Smoke Vertical Visibility of 0ft. 1018 No Significant change USCC 141930Z 00000MPS 4700 FU FEW040CB 19/10 Q1018 R09/000060 NOSIG RMK QFE743
MVFR 20°C / 9°C variable 0kt 5000m Smoke Vertical Visibility of 0ft. 1018 No Significant change USCC 141900Z 00000MPS 5000 FU FEW040CB 20/09 Q1018 R09/000060 NOSIG RMK QFE743
MVFR 22°C / 8°C 10º 2kt 5000m Smoke Vertical Visibility of 0ft. 1018 No Significant change USCC 141830Z 01001MPS 5000 FU FEW040CB 22/08 Q1018 R09/000060 NOSIG RMK QFE743
VFR 20°C / 10°C 170º 2kt >10km - Few Clouds 4000ft 1018 No Significant change USCC 141800Z 17001MPS 9999 FEW040CB 20/10 Q1018 R09/000060 NOSIG RMK QFE743
VFR 23°C / 8°C 170º 4kt >10km - Few Clouds 4000ft 1019 No Significant change USCC 141730Z 17002MPS 9999 FEW040CB 23/08 Q1019 R09/000060 NOSIG RMK QFE743
VFR 24°C / 8°C 160º 6kt >10km - Few Clouds 4000ft 1019 No Significant change USCC 141700Z 16003MPS 9999 FEW040CB 24/08 Q1019 R09/000060 NOSIG RMK QFE743
VFR 23°C / 7°C 170º 4kt >10km - Few Clouds 4000ft 1019 No Significant change USCC 141630Z 17002MPS 9999 FEW040CB 23/07 Q1019 R09/000060 NOSIG RMK QFE743
VFR 25°C / 7°C 160º 6kt >10km - Few Clouds 4000ft 1018 No Significant change USCC 141600Z 16003MPS 9999 FEW040CB 25/07 Q1018 R27/000060 NOSIG RMK QFE744
VFR 26°C / 7°C 160º 4kt >10km - Scattered Clouds 4000ft 1019 No Significant change USCC 141530Z 16002MPS 9999 SCT040CB 26/07 Q1019 R27/000060 NOSIG RMK QFE744
VFR 28°C / 7°C 210º 6kt >10km - Scattered Clouds 4000ft 1019 No Significant change USCC 141500Z 21003MPS 9999 SCT040CB 28/07 Q1019 R27/000060 NOSIG RMK QFE744
VFR 28°C / 6°C 230º 6kt >10km - Scattered Clouds 4000ft 1019 No Significant change USCC 141430Z 23003MPS 9999 SCT040 28/06 Q1019 R27/000060 NOSIG RMK QFE744
VFR 29°C / 5°C 230º 10kt >10km - Scattered Clouds 4000ft 1019 No Significant change USCC 141400Z 23005MPS 9999 SCT040 29/05 Q1019 R27/000060 NOSIG RMK QFE744
VFR 30°C / 5°C 230º 10kt >10km - Scattered Clouds 4000ft 1019 No Significant change USCC 141330Z 23005MPS 9999 SCT040 30/05 Q1019 R09/000060 NOSIG RMK QFE744
VFR 30°C / 5°C 220º 8kt >10km - Scattered Clouds 4000ft 1020 No Significant change USCC 141300Z 22004MPS 9999 SCT040 30/05 Q1020 R09/000060 NOSIG RMK QFE744
VFR 30°C / 4°C 220º 8kt >10km - Scattered Clouds 4000ft 1020 No Significant change USCC 141230Z 22004MPS 9999 SCT040 30/04 Q1020 R27/000060 NOSIG RMK QFE745

MVFR

24°C / 5°C

[Больше]
Ветер 230º 12kt
Видимость 6000m
Погода -
Облачность Scattered Clouds 4000ft
Давление 1017
Изменить No Significant change
Необработанный USCC 150000Z 23006MPS 6000 SCT040CB 24/05 Q1017 R27/000060 NOSIG RMK QFE743

MVFR

23°C / 5°C

[Больше]
Ветер 210º 10kt
Видимость 5000m
Погода Smoke
Облачность Vertical Visibility of 0ft.
Давление 1017
Изменить No Significant change
Необработанный USCC 142330Z 21005MPS 5000 FU SCT040CB 23/05 Q1017 R27/000060 NOSIG RMK QFE743

MVFR

23°C / 5°C

[Больше]
Ветер 190º 8kt
Видимость 5000m
Погода Smoke
Облачность Vertical Visibility of 0ft.
Давление 1017
Изменить No Significant change
Необработанный USCC 142300Z 19004MPS 5000 FU SCT040CB 23/05 Q1017 R09/000060 NOSIG RMK QFE742

MVFR

22°C / 5°C

[Больше]
Ветер 190º 10kt
Видимость 5000m
Погода Smoke
Облачность Vertical Visibility of 0ft.
Давление 1017
Изменить No Significant change
Необработанный USCC 142230Z 19005MPS 5000 FU SCT040CB 22/05 Q1017 R09/000060 NOSIG RMK QFE742

MVFR

21°C / 6°C

[Больше]
Ветер 190º 8kt
Видимость 5000m
Погода Smoke
Облачность Vertical Visibility of 0ft.
Давление 1018
Изменить No Significant change
Необработанный USCC 142200Z 19004MPS 5000 FU SCT040CB 21/06 Q1018 R09/000060 NOSIG RMK QFE742

IFR

20°C / 8°C

[Больше]
Ветер 190º 6kt
Видимость 4600m
Погода Smoke
Облачность Vertical Visibility of 0ft.
Давление 1018
Изменить No Significant change
Необработанный USCC 142130Z 19003MPS 4600 FU FEW040CB 20/08 Q1018 R09/000060 NOSIG RMK QFE742

IFR

18°C / 9°C

[Больше]
Ветер 190º 4kt
Видимость 4600m
Погода Smoke
Облачность Vertical Visibility of 0ft.
Давление 1018
Изменить No Significant change
Необработанный USCC 142100Z 19002MPS 4600 FU FEW040CB 18/09 Q1018 R09/000060 NOSIG RMK QFE743

MVFR

20°C / 8°C

[Больше]
Ветер variable 0kt
Видимость 4900m
Погода Smoke
Облачность Vertical Visibility of 0ft.
Давление 1018
Изменить No Significant change
Необработанный USCC 142030Z 00000MPS 4900 FU FEW040CB 20/08 Q1018 R09/000060 NOSIG RMK QFE743

IFR

18°C / 9°C

[Больше]
Ветер variable 0kt
Видимость 4800m
Погода Smoke
Облачность Vertical Visibility of 0ft.
Давление 1018
Изменить No Significant change
Необработанный USCC 142000Z 00000MPS 4800 FU FEW040CB 18/09 Q1018 R09/000060 NOSIG RMK QFE743

IFR

19°C / 10°C

[Больше]
Ветер variable 0kt
Видимость 4700m
Погода Smoke
Облачность Vertical Visibility of 0ft.
Давление 1018
Изменить No Significant change
Необработанный USCC 141930Z 00000MPS 4700 FU FEW040CB 19/10 Q1018 R09/000060 NOSIG RMK QFE743

MVFR

20°C / 9°C

[Больше]
Ветер variable 0kt
Видимость 5000m
Погода Smoke
Облачность Vertical Visibility of 0ft.
Давление 1018
Изменить No Significant change
Необработанный USCC 141900Z 00000MPS 5000 FU FEW040CB 20/09 Q1018 R09/000060 NOSIG RMK QFE743

MVFR

22°C / 8°C

[Больше]
Ветер 10º 2kt
Видимость 5000m
Погода Smoke
Облачность Vertical Visibility of 0ft.
Давление 1018
Изменить No Significant change
Необработанный USCC 141830Z 01001MPS 5000 FU FEW040CB 22/08 Q1018 R09/000060 NOSIG RMK QFE743

VFR

20°C / 10°C

[Больше]
Ветер 170º 2kt
Видимость >10km
Погода -
Облачность Few Clouds 4000ft
Давление 1018
Изменить No Significant change
Необработанный USCC 141800Z 17001MPS 9999 FEW040CB 20/10 Q1018 R09/000060 NOSIG RMK QFE743

VFR

23°C / 8°C

[Больше]
Ветер 170º 4kt
Видимость >10km
Погода -
Облачность Few Clouds 4000ft
Давление 1019
Изменить No Significant change
Необработанный USCC 141730Z 17002MPS 9999 FEW040CB 23/08 Q1019 R09/000060 NOSIG RMK QFE743

VFR

24°C / 8°C

[Больше]
Ветер 160º 6kt
Видимость >10km
Погода -
Облачность Few Clouds 4000ft
Давление 1019
Изменить No Significant change
Необработанный USCC 141700Z 16003MPS 9999 FEW040CB 24/08 Q1019 R09/000060 NOSIG RMK QFE743

VFR

23°C / 7°C

[Больше]
Ветер 170º 4kt
Видимость >10km
Погода -
Облачность Few Clouds 4000ft
Давление 1019
Изменить No Significant change
Необработанный USCC 141630Z 17002MPS 9999 FEW040CB 23/07 Q1019 R09/000060 NOSIG RMK QFE743

VFR

25°C / 7°C

[Больше]
Ветер 160º 6kt
Видимость >10km
Погода -
Облачность Few Clouds 4000ft
Давление 1018
Изменить No Significant change
Необработанный USCC 141600Z 16003MPS 9999 FEW040CB 25/07 Q1018 R27/000060 NOSIG RMK QFE744

VFR

26°C / 7°C

[Больше]
Ветер 160º 4kt
Видимость >10km
Погода -
Облачность Scattered Clouds 4000ft
Давление 1019
Изменить No Significant change
Необработанный USCC 141530Z 16002MPS 9999 SCT040CB 26/07 Q1019 R27/000060 NOSIG RMK QFE744

VFR

28°C / 7°C

[Больше]
Ветер 210º 6kt
Видимость >10km
Погода -
Облачность Scattered Clouds 4000ft
Давление 1019
Изменить No Significant change
Необработанный USCC 141500Z 21003MPS 9999 SCT040CB 28/07 Q1019 R27/000060 NOSIG RMK QFE744

VFR

28°C / 6°C

[Больше]
Ветер 230º 6kt
Видимость >10km
Погода -
Облачность Scattered Clouds 4000ft
Давление 1019
Изменить No Significant change
Необработанный USCC 141430Z 23003MPS 9999 SCT040 28/06 Q1019 R27/000060 NOSIG RMK QFE744

VFR

29°C / 5°C

[Больше]
Ветер 230º 10kt
Видимость >10km
Погода -
Облачность Scattered Clouds 4000ft
Давление 1019
Изменить No Significant change
Необработанный USCC 141400Z 23005MPS 9999 SCT040 29/05 Q1019 R27/000060 NOSIG RMK QFE744

VFR

30°C / 5°C

[Больше]
Ветер 230º 10kt
Видимость >10km
Погода -
Облачность Scattered Clouds 4000ft
Давление 1019
Изменить No Significant change
Необработанный USCC 141330Z 23005MPS 9999 SCT040 30/05 Q1019 R09/000060 NOSIG RMK QFE744

VFR

30°C / 5°C

[Больше]
Ветер 220º 8kt
Видимость >10km
Погода -
Облачность Scattered Clouds 4000ft
Давление 1020
Изменить No Significant change
Необработанный USCC 141300Z 22004MPS 9999 SCT040 30/05 Q1020 R09/000060 NOSIG RMK QFE744

VFR

30°C / 4°C

[Больше]
Ветер 220º 8kt
Видимость >10km
Погода -
Облачность Scattered Clouds 4000ft
Давление 1020
Изменить No Significant change
Необработанный USCC 141230Z 22004MPS 9999 SCT040 30/04 Q1020 R27/000060 NOSIG RMK QFE745

TAF для 55.31°С 61.5°В (USCC)

From till


From till Wind 210º 6kt. Gust 17kt. Visibility 6000m. Broken Clouds 4000ft.
Temporarly from till Wind 230º 10kt. Gust 27kt. Visibility 4000m. Smoke .
From till Wind 230º 6kt. Gust 21kt. Visibility 10km or more. Broken Clouds 3000ft.
Temporarly from till Wind 270º 6kt. Gust 25kt. Light Thunderstorm Rain . Broken Clouds 2000ft.

Необработанный: TAF USCC 142300Z 1500/1524 21003G09MPS 6000 BKN040CB TEMPO 1500/1506 23005G14MPS 4000 FU FM150600 23003G11MPS 9999 BKN030CB TEMPO 1506/1524 27003G13MPS -TSRA BKN020CB

Текущие спутниковые изображения и снимки дождя для 55.31°С 61.5°В

Указатель местности находится на 55.31°С 61.5°В. [Больше]

Спутниковое изображение в реальном времени сочетает в себе видимый свет в дневное время с инфракрасным излучением в ночное время. Ночью изображение получается не темным, так как инфракрасное излучение может обнаружить разницу температур. К сожалению, низкие облака и туман трудно отличить от температуры у поверхности земли и поэтому могут быть почти незаметны ночью. Спутниковые снимки Meteosat для Европы обновляются каждые 5 минут в режиме реального времени.Снимки GOES-16/GOES-17 (Северная и Южная Америка) и Химавари (Азия) обновляются каждые 10 минут.

Копирайт 2021 EUMETSAT / meteoblue. / Копирайт 2021 meteoblue

Радарный и сверхкраткосрочный прогноз осадков для 55.31°С 61.5°В

Индикатор местности находится на 55.31°С 61.5°В. Анимация показывает радар осадков за последний час, а также прогноз погоды для1h. Умеренная морось или легкий снег могут быть незаметны для радара. Интенсивность осадковмаркированна цветной кодировкой, начиная со светло-синего и заканчивая темно-пурпурным.